createdAt,value
2018-03-02T00:01:54.213Z,38.00
2018-03-02T00:04:22.301Z,38.40
2018-03-02T00:06:50.476Z,38.10
2018-03-02T00:09:19.501Z,38.10
2018-03-02T00:11:47.522Z,38.10
2018-03-02T00:14:16.332Z,38.40
2018-03-02T00:16:44.403Z,38.40
2018-03-02T00:19:12.440Z,38.10
2018-03-02T00:21:40.457Z,38.20
2018-03-02T00:24:10.000Z,38.30
2018-03-02T00:26:38.083Z,38.30
2018-03-02T00:29:06.147Z,38.30
2018-03-02T00:31:34.175Z,38.30
2018-03-02T00:34:02.222Z,38.30
2018-03-02T00:36:30.246Z,38.30
2018-03-02T00:38:58.258Z,38.30
2018-03-02T00:41:26.333Z,38.30
2018-03-02T00:43:54.361Z,38.70
2018-03-02T00:46:22.373Z,38.50
2018-03-02T00:48:50.424Z,38.40
2018-03-02T00:51:18.459Z,38.50
2018-03-02T00:53:46.518Z,38.40
2018-03-02T00:56:15.323Z,38.50
2018-03-02T00:58:43.370Z,38.50
2018-03-02T01:01:11.404Z,38.50
2018-03-02T01:03:39.449Z,38.20
2018-03-02T01:06:09.423Z,38.50
2018-03-02T01:08:37.467Z,38.50
2018-03-02T01:11:05.512Z,38.60
2018-03-02T01:13:33.555Z,38.50
2018-03-02T01:16:02.374Z,38.70
2018-03-02T01:18:30.404Z,38.70
2018-03-02T01:20:58.452Z,38.70
2018-03-02T01:23:26.504Z,38.60
2018-03-02T01:25:54.773Z,38.70
2018-03-02T01:28:22.818Z,38.60
2018-03-02T01:30:50.865Z,38.60
2018-03-02T01:33:19.880Z,38.60
2018-03-02T01:35:47.957Z,38.60
2018-03-02T01:38:16.002Z,38.80
2018-03-02T01:40:44.040Z,38.90
2018-03-02T01:43:12.086Z,38.90
2018-03-02T01:45:40.792Z,39.00
2018-03-02T01:48:08.862Z,38.90
2018-03-02T01:50:37.494Z,38.90
2018-03-02T01:53:05.558Z,38.80
2018-03-02T01:55:33.577Z,39.00
2018-03-02T01:58:01.595Z,38.70
2018-03-02T02:00:29.642Z,38.70
2018-03-02T02:02:57.664Z,39.00
2018-03-02T02:05:26.479Z,38.90
2018-03-02T02:07:54.520Z,38.80
2018-03-02T02:10:22.569Z,38.80
2018-03-02T02:12:50.586Z,38.80
2018-03-02T02:15:18.627Z,39.00
2018-03-02T02:17:47.484Z,38.90
2018-03-02T02:20:15.531Z,38.80
2018-03-02T02:22:43.583Z,38.70
2018-03-02T02:25:11.592Z,39.00
2018-03-02T02:27:39.735Z,38.90
2018-03-02T02:30:07.792Z,39.10
2018-03-02T02:32:35.842Z,39.20
2018-03-02T02:35:03.880Z,39.10
2018-03-02T02:37:31.909Z,39.20
2018-03-02T02:40:00.697Z,39.10
2018-03-02T02:42:30.849Z,39.10
2018-03-02T02:44:58.880Z,39.10
2018-03-02T02:47:26.919Z,39.20
2018-03-02T02:49:54.957Z,39.30
2018-03-02T02:52:22.958Z,39.00
2018-03-02T02:54:51.038Z,38.70
2018-03-02T02:57:19.058Z,39.10
2018-03-02T02:59:47.072Z,39.20
2018-03-02T03:02:15.101Z,39.20
2018-03-02T03:04:43.190Z,38.80
2018-03-02T03:07:11.262Z,38.80
2018-03-02T03:09:39.284Z,39.00
2018-03-02T03:12:07.306Z,38.90
2018-03-02T03:14:35.342Z,39.10
2018-03-02T03:17:03.388Z,39.00
2018-03-02T03:19:31.464Z,39.60
2018-03-02T03:21:59.494Z,38.90
2018-03-02T03:24:27.528Z,38.70
2018-03-02T03:26:56.340Z,38.80
2018-03-02T03:29:25.242Z,38.80
2018-03-02T03:31:53.306Z,39.00
2018-03-02T03:34:21.420Z,39.00
2018-03-02T03:36:49.474Z,39.00
2018-03-02T03:39:17.595Z,39.10
2018-03-02T03:41:46.395Z,39.20
2018-03-02T03:44:14.429Z,39.20
2018-03-02T03:46:42.461Z,39.20
2018-03-02T03:49:10.523Z,39.30
2018-03-02T03:51:38.557Z,39.30
2018-03-02T03:54:06.579Z,38.60
2018-03-02T03:56:34.603Z,38.20
2018-03-02T03:59:02.653Z,37.80
2018-03-02T04:01:30.706Z,37.40
2018-03-02T04:03:58.733Z,37.30
2018-03-02T04:06:27.534Z,35.90
2018-03-02T04:08:55.557Z,35.80
2018-03-02T04:11:23.583Z,35.60
2018-03-02T04:13:51.670Z,35.20
2018-03-02T04:16:19.720Z,34.40
2018-03-02T04:18:47.759Z,34.00
2018-03-02T04:21:15.779Z,33.80
2018-03-02T04:23:44.906Z,33.40
2018-03-02T04:26:12.960Z,33.30
2018-03-02T04:28:41.019Z,32.90
2018-03-02T04:31:09.416Z,32.70
2018-03-02T04:33:37.456Z,32.90
2018-03-02T04:36:05.497Z,32.20
2018-03-02T04:38:33.517Z,31.80
2018-03-02T04:41:01.587Z,31.60
2018-03-02T04:43:29.606Z,31.40
2018-03-02T04:45:57.635Z,31.80
2018-03-02T04:48:25.687Z,32.10
2018-03-02T04:50:53.721Z,32.50
2018-03-02T04:53:21.760Z,32.60
2018-03-02T04:55:49.812Z,32.70
2018-03-02T04:58:17.864Z,24.50
2018-03-02T05:00:45.899Z,27.10
2018-03-02T05:03:13.948Z,28.60
2018-03-02T05:05:41.990Z,28.90
2018-03-02T05:08:10.026Z,29.00
2018-03-02T05:10:38.036Z,29.00
2018-03-02T05:13:06.084Z,28.90
2018-03-02T05:15:34.139Z,29.10
2018-03-02T05:18:02.208Z,28.90
2018-03-02T05:20:30.217Z,29.10
2018-03-02T05:22:58.268Z,29.00
2018-03-02T05:25:27.067Z,29.00
2018-03-02T05:27:55.112Z,29.00
2018-03-02T05:30:23.130Z,29.10
2018-03-02T05:32:51.174Z,29.20
2018-03-02T05:35:20.024Z,29.20
2018-03-02T05:37:49.031Z,29.20
2018-03-02T05:40:17.094Z,29.20
2018-03-02T05:42:45.124Z,29.30
2018-03-02T05:45:13.146Z,29.20
2018-03-02T05:47:41.170Z,29.20
2018-03-02T05:50:09.204Z,29.10
2018-03-02T05:52:37.256Z,29.10
2018-03-02T05:55:05.297Z,29.40
2018-03-02T05:57:33.326Z,29.40
2018-03-02T06:00:01.395Z,29.40
2018-03-02T06:02:29.399Z,29.30
2018-03-02T06:04:57.451Z,29.40
2018-03-02T06:07:25.520Z,29.40
2018-03-02T06:09:53.548Z,29.30
2018-03-02T06:12:21.575Z,29.60
2018-03-02T06:14:49.626Z,29.60
2018-03-02T06:17:17.692Z,29.70
2018-03-02T06:19:45.729Z,29.70
2018-03-02T06:22:13.765Z,29.70
2018-03-02T06:24:41.793Z,29.70
2018-03-02T06:27:09.843Z,29.50
2018-03-02T06:29:37.928Z,29.40
2018-03-02T06:32:05.954Z,29.30
2018-03-02T06:34:33.986Z,29.80
2018-03-02T06:37:02.055Z,30.00
2018-03-02T06:39:30.060Z,30.60
2018-03-02T06:41:58.353Z,30.90
2018-03-02T06:44:26.411Z,31.10
2018-03-02T06:46:54.507Z,31.00
2018-03-02T06:49:23.427Z,31.20
2018-03-02T06:51:51.478Z,31.20
2018-03-02T06:54:19.518Z,31.20
2018-03-02T06:56:47.605Z,31.30
2018-03-02T06:59:17.723Z,31.40
2018-03-02T07:01:45.817Z,31.40
2018-03-02T07:04:13.930Z,31.40
2018-03-02T07:06:41.971Z,31.60
2018-03-02T07:09:10.049Z,31.50
2018-03-02T07:11:38.099Z,31.60
2018-03-02T07:14:06.142Z,31.60
2018-03-02T07:16:35.033Z,30.70
2018-03-02T07:19:03.076Z,29.30
2018-03-02T07:21:31.459Z,30.20
2018-03-02T07:24:00.054Z,31.10
2018-03-02T07:26:28.306Z,31.40
2018-03-02T07:28:57.426Z,31.60
2018-03-02T07:31:25.508Z,31.60
2018-03-02T07:33:53.576Z,31.70
2018-03-02T07:36:22.278Z,31.40
2018-03-02T07:38:50.352Z,31.60
2018-03-02T07:41:18.450Z,32.00
2018-03-02T07:43:46.498Z,31.90
2018-03-02T07:46:14.560Z,32.10
2018-03-02T07:48:42.616Z,32.10
2018-03-02T07:51:10.696Z,32.70
2018-03-02T07:53:38.751Z,32.70
2018-03-02T07:56:06.846Z,33.30
2018-03-02T07:58:34.895Z,32.90
2018-03-02T08:01:06.933Z,32.80
2018-03-02T08:03:34.960Z,32.70
2018-03-02T08:06:03.098Z,32.50
2018-03-02T08:08:31.179Z,33.00
2018-03-02T08:11:00.253Z,31.90
2018-03-02T08:13:28.343Z,32.30
2018-03-02T08:15:56.401Z,32.20
2018-03-02T08:18:24.467Z,32.40
2018-03-02T08:20:52.527Z,31.80
2018-03-02T08:23:20.578Z,28.40
2018-03-02T08:25:48.635Z,28.60
2018-03-02T08:28:16.695Z,29.30
2018-03-02T08:30:44.747Z,30.30
2018-03-02T08:33:12.831Z,31.40
2018-03-02T08:35:40.874Z,31.90
2018-03-02T08:38:08.927Z,31.80
2018-03-02T08:40:36.987Z,30.50
2018-03-02T08:43:05.020Z,29.80
2018-03-02T08:45:33.845Z,31.80
2018-03-02T08:48:01.946Z,31.80
2018-03-02T08:50:30.128Z,27.70
2018-03-02T08:52:59.631Z,26.70
2018-03-02T08:55:27.788Z,28.70
2018-03-02T08:57:55.862Z,28.60
2018-03-02T09:00:23.924Z,29.30
2018-03-02T09:02:51.954Z,30.00
2018-03-02T09:05:20.002Z,30.70
2018-03-02T09:07:48.032Z,30.30
2018-03-02T09:10:16.097Z,31.00
2018-03-02T09:12:44.182Z,31.40
2018-03-02T09:15:13.680Z,30.80
2018-03-02T09:17:41.769Z,31.40
2018-03-02T09:20:09.865Z,31.50
2018-03-02T09:22:37.921Z,31.70
2018-03-02T09:25:05.966Z,31.80
2018-03-02T09:27:34.011Z,31.90
2018-03-02T09:30:02.933Z,32.00
2018-03-02T09:32:30.958Z,32.00
2018-03-02T09:34:59.036Z,32.20
2018-03-02T09:37:27.105Z,32.30
2018-03-02T09:39:55.197Z,32.50
2018-03-02T09:42:23.222Z,32.70
2018-03-02T09:44:51.304Z,32.80
2018-03-02T09:47:19.371Z,32.60
2018-03-02T09:49:47.441Z,32.50
2018-03-02T09:52:15.481Z,32.60
2018-03-02T09:54:44.394Z,32.60
2018-03-02T09:57:12.444Z,32.80
2018-03-02T09:59:40.483Z,33.10
2018-03-02T10:02:08.549Z,33.20
2018-03-02T10:04:36.732Z,33.00
2018-03-02T10:07:04.786Z,33.10
2018-03-02T10:09:32.817Z,33.10
2018-03-02T10:12:00.873Z,30.00
2018-03-02T10:14:28.908Z,31.40
2018-03-02T10:16:56.953Z,31.90
2018-03-02T10:19:25.011Z,32.60
2018-03-02T10:21:53.038Z,33.10
2018-03-02T10:24:21.218Z,33.00
2018-03-02T10:26:49.243Z,33.00
2018-03-02T10:29:17.332Z,33.40
2018-03-02T10:31:45.381Z,33.30
2018-03-02T10:34:13.466Z,33.50
2018-03-02T10:36:41.586Z,33.80
2018-03-02T10:39:09.637Z,33.30
2018-03-02T10:41:39.229Z,33.70
2018-03-02T10:44:07.306Z,33.60
2018-03-02T10:46:35.371Z,34.00
2018-03-02T10:49:03.788Z,34.90
2018-03-02T10:51:32.915Z,34.50
2018-03-02T10:54:01.002Z,34.40
2018-03-02T10:56:29.069Z,29.80
2018-03-02T10:58:57.140Z,31.90
2018-03-02T11:01:26.248Z,28.80
2018-03-02T11:03:59.604Z,29.80
2018-03-02T11:06:27.666Z,30.50
2018-03-02T11:08:55.722Z,31.40
2018-03-02T11:11:23.813Z,31.70
2018-03-02T11:13:51.875Z,31.20
2018-03-02T11:16:19.973Z,31.70
2018-03-02T11:18:48.014Z,31.80
2018-03-02T11:21:16.048Z,31.50
2018-03-02T11:23:44.098Z,31.70
2018-03-02T11:26:12.161Z,31.60
2018-03-02T11:28:40.237Z,32.30
2018-03-02T11:31:08.458Z,33.00
2018-03-02T11:33:36.635Z,33.20
2018-03-02T11:36:04.696Z,34.10
2018-03-02T11:38:32.751Z,34.40
2018-03-02T11:41:00.788Z,34.20
2018-03-02T11:43:28.822Z,34.60
2018-03-02T11:45:56.892Z,34.70
2018-03-02T11:48:24.968Z,34.60
2018-03-02T11:50:53.805Z,34.30
2018-03-02T11:53:21.863Z,34.20
2018-03-02T11:55:49.906Z,34.50
2018-03-02T11:58:17.971Z,34.60
2018-03-02T12:00:46.083Z,32.90
2018-03-02T12:03:14.125Z,28.40
2018-03-02T12:05:42.172Z,31.30
2018-03-02T12:08:10.223Z,32.00
2018-03-02T12:10:38.301Z,32.30
2018-03-02T12:13:06.369Z,33.10
2018-03-02T12:15:34.450Z,33.20
2018-03-02T12:18:02.518Z,32.80
2018-03-02T12:20:30.728Z,32.90
2018-03-02T12:22:58.765Z,33.20
2018-03-02T12:25:26.802Z,33.20
2018-03-02T12:27:54.877Z,33.60
2018-03-02T12:30:22.937Z,33.30
2018-03-02T12:32:51.013Z,33.30
2018-03-02T12:35:19.082Z,33.30
2018-03-02T12:37:47.126Z,34.40
2018-03-02T12:40:15.184Z,33.90
2018-03-02T12:42:44.181Z,34.10
2018-03-02T12:45:12.234Z,34.30
2018-03-02T12:47:40.286Z,34.10
2018-03-02T12:50:08.348Z,34.00
2018-03-02T12:52:37.278Z,34.10
2018-03-02T12:55:05.378Z,34.10
2018-03-02T12:57:33.419Z,34.30
2018-03-02T13:00:01.557Z,34.30
2018-03-02T13:02:29.567Z,34.20
2018-03-02T13:04:57.627Z,34.60
2018-03-02T13:07:25.686Z,34.80
2018-03-02T13:09:53.728Z,34.40
2018-03-02T13:12:21.766Z,34.60
2018-03-02T13:14:49.803Z,34.40
2018-03-02T13:17:17.877Z,34.60
2018-03-02T13:19:45.980Z,34.40
2018-03-02T13:22:14.049Z,34.40
2018-03-02T13:24:42.094Z,34.40
2018-03-02T13:27:10.143Z,34.50
2018-03-02T13:29:38.931Z,34.90
2018-03-02T13:32:06.991Z,34.90
2018-03-02T13:34:35.065Z,34.90
2018-03-02T13:37:03.136Z,34.90
2018-03-02T13:39:31.201Z,35.00
2018-03-02T13:41:59.225Z,34.60
2018-03-02T13:44:27.293Z,34.90
2018-03-02T13:46:55.375Z,34.80
2018-03-02T13:49:23.449Z,35.00
2018-03-02T13:51:51.517Z,34.70
2018-03-02T13:54:19.589Z,35.00
2018-03-02T13:56:47.637Z,35.00
2018-03-02T13:59:15.702Z,35.20
2018-03-02T14:01:43.751Z,34.70
2018-03-02T14:04:12.567Z,35.30
2018-03-02T14:06:40.635Z,35.30
2018-03-02T14:09:08.694Z,34.90
2018-03-02T14:11:36.819Z,35.20
2018-03-02T14:14:04.876Z,35.30
2018-03-02T14:16:32.930Z,32.90
2018-03-02T14:19:00.980Z,33.40
2018-03-02T14:21:29.056Z,34.60
2018-03-02T14:23:57.985Z,35.10
2018-03-02T14:26:26.074Z,35.30
2018-03-02T14:28:54.149Z,30.00
2018-03-02T14:31:22.237Z,33.30
2018-03-02T14:33:50.307Z,35.30
2018-03-02T14:36:18.367Z,36.50
2018-03-02T14:38:46.426Z,37.30
2018-03-02T14:41:14.535Z,37.10
2018-03-02T14:43:42.609Z,37.60
2018-03-02T14:46:10.663Z,37.60
2018-03-02T14:48:38.722Z,38.00
2018-03-02T14:51:06.775Z,38.30
2018-03-02T14:53:34.881Z,38.20
2018-03-02T14:56:02.905Z,38.60
2018-03-02T14:58:32.478Z,38.50
2018-03-02T15:01:00.511Z,38.30
2018-03-02T15:03:28.552Z,38.40
2018-03-02T15:05:56.590Z,38.50
2018-03-02T15:08:24.702Z,36.50
2018-03-02T15:10:53.626Z,38.00
2018-03-02T15:13:21.688Z,38.00
2018-03-02T15:15:49.726Z,38.20
2018-03-02T15:18:17.763Z,38.20
2018-03-02T15:20:45.810Z,38.10
2018-03-02T15:23:13.879Z,38.10
2018-03-02T15:25:42.706Z,38.20
2018-03-02T15:28:11.585Z,37.90
2018-03-02T15:30:39.584Z,37.90
2018-03-02T15:33:07.632Z,38.10
2018-03-02T15:35:35.704Z,38.30
2018-03-02T15:38:03.742Z,39.00
2018-03-02T15:40:31.817Z,39.30
2018-03-02T15:42:59.867Z,39.70
2018-03-02T15:45:27.900Z,40.40
2018-03-02T15:47:56.748Z,39.60
2018-03-02T15:50:24.811Z,39.60
2018-03-02T15:52:52.898Z,40.00
2018-03-02T15:55:20.977Z,39.70
2018-03-02T15:57:49.064Z,39.60
2018-03-02T16:00:17.159Z,39.90
2018-03-02T16:02:46.128Z,40.60
2018-03-02T16:05:14.218Z,40.50
2018-03-02T16:07:42.288Z,40.70
2018-03-02T16:10:10.375Z,40.60
2018-03-02T16:12:38.477Z,40.90
2018-03-02T16:15:06.534Z,40.70
2018-03-02T16:17:34.620Z,40.80
2018-03-02T16:20:02.688Z,40.60
2018-03-02T16:22:30.743Z,40.60
2018-03-02T16:24:58.837Z,40.40
2018-03-02T16:27:26.896Z,40.60
2018-03-02T16:29:54.974Z,39.90
2018-03-02T16:32:23.051Z,40.00
2018-03-02T16:34:51.123Z,39.90
2018-03-02T16:37:19.200Z,40.00
2018-03-02T16:39:47.265Z,40.30
2018-03-02T16:42:15.333Z,40.40
2018-03-02T16:44:43.398Z,40.70
2018-03-02T16:47:11.445Z,40.70
2018-03-02T16:49:39.510Z,40.80
2018-03-02T16:52:07.561Z,40.90
2018-03-02T16:54:35.610Z,40.90
2018-03-02T16:57:03.717Z,40.70
2018-03-02T16:59:31.802Z,40.80
2018-03-02T17:01:59.853Z,40.60
2018-03-02T17:04:27.902Z,40.00
2018-03-02T17:06:55.957Z,39.40
2018-03-02T17:09:23.998Z,39.60
2018-03-02T17:11:52.802Z,39.70
2018-03-02T17:14:20.877Z,39.70
2018-03-02T17:16:48.969Z,39.80
2018-03-02T17:19:17.050Z,39.80
2018-03-02T17:21:45.279Z,40.00
2018-03-02T17:24:13.333Z,39.40
2018-03-02T17:26:41.404Z,38.10
2018-03-02T17:29:09.480Z,37.80
2018-03-02T17:31:37.573Z,37.70
2018-03-02T17:34:05.600Z,37.80
2018-03-02T17:36:33.650Z,37.90
2018-03-02T17:39:01.692Z,34.00
2018-03-02T17:41:30.546Z,35.10
2018-03-02T17:43:58.600Z,35.10
2018-03-02T17:46:26.640Z,36.90
2018-03-02T17:48:54.683Z,37.60
2018-03-02T17:51:22.753Z,37.20
2018-03-02T17:53:50.824Z,38.10
2018-03-02T17:56:18.885Z,38.60
2018-03-02T17:58:46.928Z,38.90
2018-03-02T18:01:14.994Z,39.20
2018-03-02T18:03:43.101Z,39.50
2018-03-02T18:06:11.165Z,39.40
2018-03-02T18:08:39.336Z,39.90
2018-03-02T18:11:07.426Z,40.00
2018-03-02T18:13:35.484Z,39.90
2018-03-02T18:16:03.549Z,41.20
2018-03-02T18:18:31.624Z,40.60
2018-03-02T18:20:59.696Z,40.40
2018-03-02T18:23:27.748Z,40.40
2018-03-02T18:25:55.817Z,38.90
2018-03-02T18:28:23.885Z,39.40
2018-03-02T18:30:51.957Z,40.00
2018-03-02T18:33:20.048Z,40.30
2018-03-02T18:35:48.109Z,40.60
2018-03-02T18:38:16.180Z,40.60
2018-03-02T18:40:44.237Z,40.60
2018-03-02T18:43:12.324Z,40.50
2018-03-02T18:45:40.419Z,40.40
2018-03-02T18:48:08.496Z,40.60
2018-03-02T18:50:36.585Z,40.50
2018-03-02T18:53:04.647Z,40.50
2018-03-02T18:55:32.707Z,40.60
2018-03-02T18:58:00.800Z,40.50
2018-03-02T19:00:28.850Z,40.50
2018-03-02T19:02:56.942Z,40.60
2018-03-02T19:05:25.970Z,40.40
2018-03-02T19:07:54.027Z,40.00
2018-03-02T19:10:22.075Z,40.10
2018-03-02T19:12:50.128Z,40.30
2018-03-02T19:15:18.201Z,40.20
2018-03-02T19:17:46.291Z,40.30
2018-03-02T19:20:14.375Z,40.20
2018-03-02T19:22:42.486Z,40.10
2018-03-02T19:25:10.569Z,40.00
2018-03-02T19:27:38.692Z,40.00
2018-03-02T19:30:06.746Z,39.70
2018-03-02T19:32:34.820Z,39.80
2018-03-02T19:35:02.887Z,39.20
2018-03-02T19:37:30.952Z,39.30
2018-03-02T19:39:59.033Z,39.20
2018-03-02T19:42:27.102Z,37.90
2018-03-02T19:44:55.144Z,38.40
2018-03-02T19:47:23.237Z,38.20
2018-03-02T19:49:51.292Z,38.40
2018-03-02T19:52:19.356Z,38.60
2018-03-02T19:54:47.412Z,38.50
2018-03-02T19:57:15.461Z,38.40
2018-03-02T19:59:43.529Z,38.30
2018-03-02T20:02:11.584Z,38.20
2018-03-02T20:04:39.662Z,38.40
2018-03-02T20:07:07.737Z,38.20
2018-03-02T20:09:35.818Z,38.40
2018-03-02T20:12:03.891Z,38.40
2018-03-02T20:14:31.936Z,38.40
2018-03-02T20:17:00.027Z,38.80
2018-03-02T20:19:28.079Z,38.50
2018-03-02T20:21:56.155Z,38.50
2018-03-02T20:24:24.236Z,38.30
2018-03-02T20:26:52.340Z,38.40
2018-03-02T20:29:20.384Z,38.20
2018-03-02T20:31:48.440Z,38.50
2018-03-02T20:34:16.453Z,38.20
2018-03-02T20:36:45.296Z,38.80
2018-03-02T20:39:13.332Z,38.10
2018-03-02T20:41:41.360Z,38.30
2018-03-02T20:44:09.471Z,38.10
2018-03-02T20:46:37.533Z,38.30
2018-03-02T20:49:05.623Z,38.20
2018-03-02T20:51:33.695Z,37.90
2018-03-02T20:54:01.743Z,37.90
2018-03-02T20:56:29.821Z,37.80
2018-03-02T20:58:57.872Z,37.80
2018-03-02T21:01:25.998Z,38.00
2018-03-02T21:03:54.082Z,37.90
2018-03-02T21:06:22.177Z,37.80
2018-03-02T21:08:50.315Z,37.70
2018-03-02T21:11:18.384Z,37.20
2018-03-02T21:13:47.275Z,37.60
2018-03-02T21:16:16.119Z,37.70
2018-03-02T21:18:44.168Z,37.70
2018-03-02T21:21:12.221Z,38.30
2018-03-02T21:23:40.278Z,37.40
2018-03-02T21:26:08.344Z,38.00
2018-03-02T21:28:36.425Z,38.20
2018-03-02T21:31:04.499Z,38.40
2018-03-02T21:33:32.710Z,38.90
2018-03-02T21:36:00.642Z,38.10
2018-03-02T21:38:28.848Z,37.70
2018-03-02T21:40:56.930Z,37.80
2018-03-02T21:43:24.958Z,37.80
2018-03-02T21:45:53.756Z,38.50
2018-03-02T21:48:21.792Z,38.50
2018-03-02T21:50:49.828Z,38.40
2018-03-02T21:53:17.880Z,38.50
2018-03-02T21:55:45.908Z,38.30
2018-03-02T21:58:13.944Z,38.30
2018-03-02T22:00:42.008Z,37.90
2018-03-02T22:03:10.084Z,39.10
2018-03-02T22:05:38.125Z,39.00
2018-03-02T22:08:06.156Z,39.00
2018-03-02T22:10:34.220Z,39.20
2018-03-02T22:13:02.260Z,39.30
2018-03-02T22:15:30.293Z,39.50
2018-03-02T22:17:58.366Z,39.30
2018-03-02T22:20:27.196Z,39.60
2018-03-02T22:22:55.229Z,39.50
2018-03-02T22:25:23.276Z,39.60
2018-03-02T22:27:51.287Z,39.60
2018-03-02T22:30:19.392Z,39.60
2018-03-02T22:32:47.446Z,39.80
2018-03-02T22:35:15.475Z,39.50
2018-03-02T22:37:43.527Z,39.70
2018-03-02T22:40:11.557Z,39.50
2018-03-02T22:42:39.636Z,39.50
2018-03-02T22:45:07.675Z,39.50
2018-03-02T22:47:35.713Z,39.50
2018-03-02T22:50:03.765Z,39.30
2018-03-02T22:52:31.803Z,39.30
2018-03-02T22:55:00.642Z,39.30
2018-03-02T22:57:28.683Z,39.30
2018-03-02T22:59:56.729Z,39.30
2018-03-02T23:02:24.745Z,39.40
2018-03-02T23:04:52.772Z,39.30
2018-03-02T23:07:21.617Z,39.50
2018-03-02T23:09:49.650Z,39.50
2018-03-02T23:12:17.688Z,39.50
2018-03-02T23:14:45.758Z,39.50
2018-03-02T23:17:13.823Z,39.60
2018-03-02T23:19:41.902Z,39.70
2018-03-02T23:22:09.959Z,40.00
2018-03-02T23:24:38.014Z,39.70
2018-03-02T23:27:06.046Z,40.40
2018-03-02T23:29:34.086Z,40.50
2018-03-02T23:32:02.144Z,40.60
2018-03-02T23:34:30.170Z,40.80
2018-03-02T23:36:58.200Z,40.80
2018-03-02T23:39:26.268Z,41.00
2018-03-02T23:41:54.292Z,40.90
2018-03-02T23:44:22.385Z,41.00
2018-03-02T23:46:50.418Z,40.90
2018-03-02T23:49:19.221Z,41.00
2018-03-02T23:51:47.259Z,41.00
2018-03-02T23:54:15.397Z,41.10
2018-03-02T23:56:43.498Z,41.10
2018-03-02T23:59:11.510Z,41.20
